sensor_id;sensor_type;location;lat;lon;timestamp;temperature;humidity
5779;DHT22;2916;49.798;10.022;2023-06-24T00:01:35;16.20;99.90
5779;DHT22;2916;49.798;10.022;2023-06-24T00:04:02;16.10;99.90
5779;DHT22;2916;49.798;10.022;2023-06-24T00:06:29;16.10;99.90
5779;DHT22;2916;49.798;10.022;2023-06-24T00:08:56;16.10;99.90
5779;DHT22;2916;49.798;10.022;2023-06-24T00:11:27;16.10;99.90
5779;DHT22;2916;49.798;10.022;2023-06-24T00:13:55;16.10;99.90
5779;DHT22;2916;49.798;10.022;2023-06-24T00:16:24;16.10;99.90
5779;DHT22;2916;49.798;10.022;2023-06-24T00:18:53;16.00;99.90
5779;DHT22;2916;49.798;10.022;2023-06-24T00:21:24;16.00;99.90
5779;DHT22;2916;49.798;10.022;2023-06-24T00:23:56;15.90;99.90
5779;DHT22;2916;49.798;10.022;2023-06-24T00:26:24;15.90;99.90
5779;DHT22;2916;49.798;10.022;2023-06-24T00:28:51;15.90;99.90
5779;DHT22;2916;49.798;10.022;2023-06-24T00:31:19;16.00;99.90
5779;DHT22;2916;49.798;10.022;2023-06-24T00:33:48;15.90;99.90
5779;DHT22;2916;49.798;10.022;2023-06-24T00:36:17;15.90;99.90
5779;DHT22;2916;49.798;10.022;2023-06-24T00:38:44;15.80;99.90
5779;DHT22;2916;49.798;10.022;2023-06-24T00:41:12;15.80;99.90
5779;DHT22;2916;49.798;10.022;2023-06-24T00:43:39;15.70;99.90
5779;DHT22;2916;49.798;10.022;2023-06-24T00:46:06;15.70;99.90
5779;DHT22;2916;49.798;10.022;2023-06-24T00:48:34;15.60;99.90
5779;DHT22;2916;49.798;10.022;2023-06-24T00:51:02;15.60;99.90
5779;DHT22;2916;49.798;10.022;2023-06-24T00:53:30;15.50;99.90
5779;DHT22;2916;49.798;10.022;2023-06-24T00:55:58;15.50;99.90
5779;DHT22;2916;49.798;10.022;2023-06-24T00:58:28;15.50;99.90
5779;DHT22;2916;49.798;10.022;2023-06-24T01:00:57;15.50;99.90
5779;DHT22;2916;49.798;10.022;2023-06-24T01:03:27;15.50;99.90
5779;DHT22;2916;49.798;10.022;2023-06-24T01:05:55;15.40;99.90
5779;DHT22;2916;49.798;10.022;2023-06-24T01:08:25;15.40;99.90
5779;DHT22;2916;49.798;10.022;2023-06-24T01:10:52;15.30;99.90
5779;DHT22;2916;49.798;10.022;2023-06-24T01:13:19;15.30;99.90
5779;DHT22;2916;49.798;10.022;2023-06-24T01:15:48;15.30;99.90
5779;DHT22;2916;49.798;10.022;2023-06-24T01:18:22;15.30;99.90
5779;DHT22;2916;49.798;10.022;2023-06-24T01:21:01;15.20;99.90
5779;DHT22;2916;49.798;10.022;2023-06-24T01:33:39;15.10;99.90
5779;DHT22;2916;49.798;10.022;2023-06-24T01:36:15;15.00;99.90
5779;DHT22;2916;49.798;10.022;2023-06-24T01:38:48;15.00;99.90
5779;DHT22;2916;49.798;10.022;2023-06-24T01:41:22;15.00;99.90
5779;DHT22;2916;49.798;10.022;2023-06-24T01:43:52;15.00;99.90
5779;DHT22;2916;49.798;10.022;2023-06-24T01:46:22;15.00;99.90
5779;DHT22;2916;49.798;10.022;2023-06-24T01:48:55;15.00;99.90
5779;DHT22;2916;49.798;10.022;2023-06-24T01:51:29;15.00;99.90
5779;DHT22;2916;49.798;10.022;2023-06-24T01:54:01;15.10;99.90
5779;DHT22;2916;49.798;10.022;2023-06-24T01:56:32;15.10;99.90
5779;DHT22;2916;49.798;10.022;2023-06-24T01:59:03;15.10;99.90
5779;DHT22;2916;49.798;10.022;2023-06-24T02:01:33;15.10;99.90
5779;DHT22;2916;49.798;10.022;2023-06-24T02:04:07;15.10;99.90
5779;DHT22;2916;49.798;10.022;2023-06-24T02:06:37;15.00;99.90
5779;DHT22;2916;49.798;10.022;2023-06-24T02:09:07;15.00;99.90
5779;DHT22;2916;49.798;10.022;2023-06-24T02:11:36;14.90;99.90
5779;DHT22;2916;49.798;10.022;2023-06-24T02:14:05;14.90;99.90
5779;DHT22;2916;49.798;10.022;2023-06-24T02:16:36;14.90;99.90
5779;DHT22;2916;49.798;10.022;2023-06-24T02:19:10;14.90;99.90
5779;DHT22;2916;49.798;10.022;2023-06-24T02:21:39;14.90;99.90
5779;DHT22;2916;49.798;10.022;2023-06-24T02:24:09;14.80;99.90
5779;DHT22;2916;49.798;10.022;2023-06-24T02:26:37;14.80;99.90
5779;DHT22;2916;49.798;10.022;2023-06-24T02:29:08;14.80;99.90
5779;DHT22;2916;49.798;10.022;2023-06-24T02:31:39;14.70;99.90
5779;DHT22;2916;49.798;10.022;2023-06-24T02:34:07;14.70;99.90
5779;DHT22;2916;49.798;10.022;2023-06-24T02:36:35;14.70;99.90
5779;DHT22;2916;49.798;10.022;2023-06-24T02:39:03;14.70;99.90
5779;DHT22;2916;49.798;10.022;2023-06-24T02:41:30;14.70;99.90
5779;DHT22;2916;49.798;10.022;2023-06-24T02:43:57;14.70;99.90
5779;DHT22;2916;49.798;10.022;2023-06-24T02:46:25;14.80;99.90
5779;DHT22;2916;49.798;10.022;2023-06-24T02:48:56;14.70;99.90
5779;DHT22;2916;49.798;10.022;2023-06-24T02:51:26;14.60;99.90
5779;DHT22;2916;49.798;10.022;2023-06-24T02:53:54;14.60;99.90
5779;DHT22;2916;49.798;10.022;2023-06-24T02:56:24;14.60;99.90
5779;DHT22;2916;49.798;10.022;2023-06-24T02:58:54;14.60;99.90
5779;DHT22;2916;49.798;10.022;2023-06-24T03:01:21;14.60;99.90
5779;DHT22;2916;49.798;10.022;2023-06-24T03:03:53;14.60;99.90
5779;DHT22;2916;49.798;10.022;2023-06-24T03:06:21;14.50;99.90
5779;DHT22;2916;49.798;10.022;2023-06-24T03:08:50;14.40;99.90
5779;DHT22;2916;49.798;10.022;2023-06-24T03:11:18;14.40;99.90
5779;DHT22;2916;49.798;10.022;2023-06-24T03:13:45;14.40;99.90
5779;DHT22;2916;49.798;10.022;2023-06-24T03:16:12;14.30;99.90
5779;DHT22;2916;49.798;10.022;2023-06-24T03:18:40;14.50;99.90
5779;DHT22;2916;49.798;10.022;2023-06-24T03:21:08;14.30;99.90
5779;DHT22;2916;49.798;10.022;2023-06-24T03:23:35;14.30;99.90
5779;DHT22;2916;49.798;10.022;2023-06-24T03:26:04;14.30;99.90
5779;DHT22;2916;49.798;10.022;2023-06-24T03:28:31;14.30;99.90
5779;DHT22;2916;49.798;10.022;2023-06-24T03:30:59;14.30;99.90
5779;DHT22;2916;49.798;10.022;2023-06-24T03:33:26;14.40;99.90
5779;DHT22;2916;49.798;10.022;2023-06-24T03:35:53;14.40;99.90
5779;DHT22;2916;49.798;10.022;2023-06-24T03:38:20;14.40;99.90
5779;DHT22;2916;49.798;10.022;2023-06-24T03:40:48;14.50;99.90
5779;DHT22;2916;49.798;10.022;2023-06-24T03:43:16;14.40;99.90
5779;DHT22;2916;49.798;10.022;2023-06-24T03:45:43;14.40;99.90
5779;DHT22;2916;49.798;10.022;2023-06-24T03:48:11;14.40;99.90
5779;DHT22;2916;49.798;10.022;2023-06-24T03:50:38;14.40;99.90
5779;DHT22;2916;49.798;10.022;2023-06-24T03:53:06;14.40;99.90
5779;DHT22;2916;49.798;10.022;2023-06-24T03:55:33;14.50;99.90
5779;DHT22;2916;49.798;10.022;2023-06-24T03:58:00;14.50;99.90
5779;DHT22;2916;49.798;10.022;2023-06-24T04:00:29;14.50;99.90
5779;DHT22;2916;49.798;10.022;2023-06-24T04:02:56;14.60;99.90
5779;DHT22;2916;49.798;10.022;2023-06-24T04:05:26;14.60;99.90
5779;DHT22;2916;49.798;10.022;2023-06-24T04:07:54;14.70;99.90
5779;DHT22;2916;49.798;10.022;2023-06-24T04:10:21;14.60;99.90
5779;DHT22;2916;49.798;10.022;2023-06-24T04:12:49;14.60;99.90
5779;DHT22;2916;49.798;10.022;2023-06-24T04:15:16;14.70;99.90
5779;DHT22;2916;49.798;10.022;2023-06-24T04:17:44;14.90;99.90
5779;DHT22;2916;49.798;10.022;2023-06-24T04:20:12;15.10;99.90
5779;DHT22;2916;49.798;10.022;2023-06-24T04:22:40;15.20;99.90
5779;DHT22;2916;49.798;10.022;2023-06-24T04:25:08;15.40;99.90
5779;DHT22;2916;49.798;10.022;2023-06-24T04:27:36;15.60;99.90
5779;DHT22;2916;49.798;10.022;2023-06-24T04:30:04;15.70;99.90
5779;DHT22;2916;49.798;10.022;2023-06-24T04:32:32;15.80;99.90
5779;DHT22;2916;49.798;10.022;2023-06-24T04:35:01;15.80;99.90
5779;DHT22;2916;49.798;10.022;2023-06-24T04:37:29;15.70;99.90
5779;DHT22;2916;49.798;10.022;2023-06-24T04:39:57;15.90;99.90
5779;DHT22;2916;49.798;10.022;2023-06-24T04:42:24;16.10;99.90
5779;DHT22;2916;49.798;10.022;2023-06-24T04:44:51;16.20;99.90
5779;DHT22;2916;49.798;10.022;2023-06-24T04:47:19;16.10;99.90
5779;DHT22;2916;49.798;10.022;2023-06-24T04:49:46;16.10;99.90
5779;DHT22;2916;49.798;10.022;2023-06-24T04:52:15;16.10;99.90
5779;DHT22;2916;49.798;10.022;2023-06-24T04:54:42;16.20;99.90
5779;DHT22;2916;49.798;10.022;2023-06-24T04:57:14;16.20;99.90
5779;DHT22;2916;49.798;10.022;2023-06-24T04:59:50;16.40;99.90
5779;DHT22;2916;49.798;10.022;2023-06-24T05:02:17;16.70;99.90
5779;DHT22;2916;49.798;10.022;2023-06-24T05:04:44;17.20;99.90
5779;DHT22;2916;49.798;10.022;2023-06-24T05:07:12;17.50;99.90
5779;DHT22;2916;49.798;10.022;2023-06-24T05:09:40;17.90;99.90
5779;DHT22;2916;49.798;10.022;2023-06-24T05:12:09;18.30;99.90
5779;DHT22;2916;49.798;10.022;2023-06-24T05:14:36;19.20;99.90
5779;DHT22;2916;49.798;10.022;2023-06-24T05:17:04;19.70;99.90
5779;DHT22;2916;49.798;10.022;2023-06-24T05:19:31;19.70;99.90
5779;DHT22;2916;49.798;10.022;2023-06-24T05:21:59;20.00;99.90
5779;DHT22;2916;49.798;10.022;2023-06-24T05:24:26;20.90;99.90
5779;DHT22;2916;49.798;10.022;2023-06-24T05:26:55;21.50;99.90
5779;DHT22;2916;49.798;10.022;2023-06-24T05:29:22;22.10;99.90
5779;DHT22;2916;49.798;10.022;2023-06-24T05:31:50;21.90;99.90
5779;DHT22;2916;49.798;10.022;2023-06-24T05:34:17;22.00;99.90
5779;DHT22;2916;49.798;10.022;2023-06-24T05:36:44;22.30;96.50
5779;DHT22;2916;49.798;10.022;2023-06-24T05:39:11;22.50;79.40
5779;DHT22;2916;49.798;10.022;2023-06-24T05:41:39;22.10;69.70
5779;DHT22;2916;49.798;10.022;2023-06-24T05:44:08;22.20;47.30
5779;DHT22;2916;49.798;10.022;2023-06-24T05:46:36;22.40;35.50
5779;DHT22;2916;49.798;10.022;2023-06-24T05:49:04;22.60;24.40
5779;DHT22;2916;49.798;10.022;2023-06-24T05:51:31;23.80;11.10
5779;DHT22;2916;49.798;10.022;2023-06-24T05:53:58;24.50;2.40
5779;DHT22;2916;49.798;10.022;2023-06-24T05:56:26;24.90;1.00
5779;DHT22;2916;49.798;10.022;2023-06-24T05:58:53;25.40;1.00
5779;DHT22;2916;49.798;10.022;2023-06-24T06:01:22;25.40;1.00
5779;DHT22;2916;49.798;10.022;2023-06-24T06:03:49;25.50;1.00
5779;DHT22;2916;49.798;10.022;2023-06-24T06:06:16;25.60;1.00
5779;DHT22;2916;49.798;10.022;2023-06-24T06:08:43;25.50;1.00
5779;DHT22;2916;49.798;10.022;2023-06-24T06:11:11;26.00;1.00
5779;DHT22;2916;49.798;10.022;2023-06-24T06:13:38;26.30;1.00
5779;DHT22;2916;49.798;10.022;2023-06-24T06:16:05;26.60;1.00
5779;DHT22;2916;49.798;10.022;2023-06-24T06:18:34;26.50;1.00
5779;DHT22;2916;49.798;10.022;2023-06-24T06:21:01;27.00;1.00
5779;DHT22;2916;49.798;10.022;2023-06-24T06:23:28;26.90;1.00
5779;DHT22;2916;49.798;10.022;2023-06-24T06:25:55;27.30;1.00
5779;DHT22;2916;49.798;10.022;2023-06-24T06:28:23;27.50;1.00
5779;DHT22;2916;49.798;10.022;2023-06-24T06:30:50;27.60;1.00
5779;DHT22;2916;49.798;10.022;2023-06-24T06:33:17;27.90;1.00
5779;DHT22;2916;49.798;10.022;2023-06-24T06:35:46;28.00;1.00
5779;DHT22;2916;49.798;10.022;2023-06-24T06:38:13;28.20;1.00
5779;DHT22;2916;49.798;10.022;2023-06-24T06:40:40;28.30;1.00
5779;DHT22;2916;49.798;10.022;2023-06-24T06:43:08;28.60;1.00
5779;DHT22;2916;49.798;10.022;2023-06-24T06:45:35;28.70;1.00
5779;DHT22;2916;49.798;10.022;2023-06-24T06:48:02;29.10;1.00
5779;DHT22;2916;49.798;10.022;2023-06-24T06:50:32;28.50;1.00
5779;DHT22;2916;49.798;10.022;2023-06-24T06:53:01;28.60;1.00
5779;DHT22;2916;49.798;10.022;2023-06-24T06:55:29;28.90;1.00
5779;DHT22;2916;49.798;10.022;2023-06-24T06:57:56;29.20;1.00
5779;DHT22;2916;49.798;10.022;2023-06-24T07:00:23;29.50;1.00
5779;DHT22;2916;49.798;10.022;2023-06-24T07:02:50;29.50;1.00
5779;DHT22;2916;49.798;10.022;2023-06-24T07:05:17;29.90;1.00
5779;DHT22;2916;49.798;10.022;2023-06-24T07:07:44;29.50;1.00
5779;DHT22;2916;49.798;10.022;2023-06-24T07:10:13;29.40;1.00
5779;DHT22;2916;49.798;10.022;2023-06-24T07:12:40;29.60;1.00
5779;DHT22;2916;49.798;10.022;2023-06-24T07:15:08;29.90;1.00
5779;DHT22;2916;49.798;10.022;2023-06-24T07:17:36;30.10;1.00
5779;DHT22;2916;49.798;10.022;2023-06-24T07:20:04;30.20;1.00
5779;DHT22;2916;49.798;10.022;2023-06-24T07:22:32;30.70;1.00
5779;DHT22;2916;49.798;10.022;2023-06-24T07:24:59;30.00;1.00
5779;DHT22;2916;49.798;10.022;2023-06-24T07:27:28;30.40;1.00
5779;DHT22;2916;49.798;10.022;2023-06-24T07:29:55;30.70;1.00
5779;DHT22;2916;49.798;10.022;2023-06-24T07:32:22;30.70;1.00
5779;DHT22;2916;49.798;10.022;2023-06-24T07:34:49;30.40;1.00
5779;DHT22;2916;49.798;10.022;2023-06-24T07:37:16;30.70;1.00
5779;DHT22;2916;49.798;10.022;2023-06-24T07:39:43;31.00;1.00
5779;DHT22;2916;49.798;10.022;2023-06-24T07:42:10;31.20;1.00
5779;DHT22;2916;49.798;10.022;2023-06-24T07:44:41;31.50;1.00
5779;DHT22;2916;49.798;10.022;2023-06-24T07:47:08;30.50;1.00
5779;DHT22;2916;49.798;10.022;2023-06-24T07:49:35;30.30;1.00
5779;DHT22;2916;49.798;10.022;2023-06-24T07:52:03;30.90;1.00
5779;DHT22;2916;49.798;10.022;2023-06-24T07:54:31;30.80;1.00
5779;DHT22;2916;49.798;10.022;2023-06-24T07:56:59;29.90;1.00
5779;DHT22;2916;49.798;10.022;2023-06-24T07:59:26;30.70;1.00
5779;DHT22;2916;49.798;10.022;2023-06-24T08:01:55;31.20;1.00
5779;DHT22;2916;49.798;10.022;2023-06-24T08:04:22;31.50;1.00
5779;DHT22;2916;49.798;10.022;2023-06-24T08:06:49;30.90;1.00
5779;DHT22;2916;49.798;10.022;2023-06-24T08:09:16;30.50;1.00
5779;DHT22;2916;49.798;10.022;2023-06-24T08:11:44;31.00;1.00
5779;DHT22;2916;49.798;10.022;2023-06-24T08:14:11;31.10;1.00
5779;DHT22;2916;49.798;10.022;2023-06-24T08:16:39;30.40;1.00
5779;DHT22;2916;49.798;10.022;2023-06-24T08:19:07;30.90;1.00
5779;DHT22;2916;49.798;10.022;2023-06-24T08:21:34;31.40;1.00
5779;DHT22;2916;49.798;10.022;2023-06-24T08:24:03;31.00;1.00
5779;DHT22;2916;49.798;10.022;2023-06-24T08:26:31;30.10;1.00
5779;DHT22;2916;49.798;10.022;2023-06-24T08:28:58;29.00;1.00
5779;DHT22;2916;49.798;10.022;2023-06-24T08:31:25;30.40;1.00
5779;DHT22;2916;49.798;10.022;2023-06-24T08:33:53;30.90;1.00
5779;DHT22;2916;49.798;10.022;2023-06-24T08:36:23;30.60;1.00
5779;DHT22;2916;49.798;10.022;2023-06-24T08:38:50;30.80;1.00
5779;DHT22;2916;49.798;10.022;2023-06-24T08:41:17;31.40;1.00
5779;DHT22;2916;49.798;10.022;2023-06-24T08:43:45;30.60;1.00
5779;DHT22;2916;49.798;10.022;2023-06-24T08:46:13;31.20;1.00
5779;DHT22;2916;49.798;10.022;2023-06-24T08:48:43;31.80;1.00
5779;DHT22;2916;49.798;10.022;2023-06-24T08:51:15;32.20;1.00
5779;DHT22;2916;49.798;10.022;2023-06-24T08:53:48;32.30;1.00
5779;DHT22;2916;49.798;10.022;2023-06-24T08:56:17;31.50;1.00
5779;DHT22;2916;49.798;10.022;2023-06-24T08:58:44;31.80;1.00
5779;DHT22;2916;49.798;10.022;2023-06-24T09:01:11;32.20;1.00
5779;DHT22;2916;49.798;10.022;2023-06-24T09:03:39;32.40;1.00
5779;DHT22;2916;49.798;10.022;2023-06-24T09:06:06;32.10;1.00
5779;DHT22;2916;49.798;10.022;2023-06-24T09:08:33;32.40;1.00
5779;DHT22;2916;49.798;10.022;2023-06-24T09:11:02;32.60;1.00
5779;DHT22;2916;49.798;10.022;2023-06-24T09:13:34;31.40;1.00
5779;DHT22;2916;49.798;10.022;2023-06-24T09:16:11;31.10;1.00
5779;DHT22;2916;49.798;10.022;2023-06-24T09:18:40;31.80;1.00
5779;DHT22;2916;49.798;10.022;2023-06-24T09:21:10;30.90;1.00
5779;DHT22;2916;49.798;10.022;2023-06-24T09:23:37;31.80;1.00
5779;DHT22;2916;49.798;10.022;2023-06-24T09:26:09;32.00;1.00
5779;DHT22;2916;49.798;10.022;2023-06-24T09:28:37;32.30;1.00
5779;DHT22;2916;49.798;10.022;2023-06-24T09:31:08;31.00;1.00
5779;DHT22;2916;49.798;10.022;2023-06-24T09:33:36;31.90;1.00
5779;DHT22;2916;49.798;10.022;2023-06-24T09:36:05;32.70;1.00
5779;DHT22;2916;49.798;10.022;2023-06-24T09:38:33;32.40;1.00
5779;DHT22;2916;49.798;10.022;2023-06-24T09:41:06;30.90;1.00
5779;DHT22;2916;49.798;10.022;2023-06-24T09:43:34;30.20;1.00
5779;DHT22;2916;49.798;10.022;2023-06-24T09:46:02;31.40;1.00
5779;DHT22;2916;49.798;10.022;2023-06-24T09:48:30;32.20;1.00
5779;DHT22;2916;49.798;10.022;2023-06-24T09:51:00;32.50;1.00
5779;DHT22;2916;49.798;10.022;2023-06-24T09:53:30;31.90;1.00
5779;DHT22;2916;49.798;10.022;2023-06-24T09:55:59;31.50;1.00
5779;DHT22;2916;49.798;10.022;2023-06-24T09:58:32;31.30;1.00
5779;DHT22;2916;49.798;10.022;2023-06-24T10:01:03;31.80;1.00
5779;DHT22;2916;49.798;10.022;2023-06-24T10:03:33;32.30;1.00
5779;DHT22;2916;49.798;10.022;2023-06-24T10:06:02;32.40;1.00
5779;DHT22;2916;49.798;10.022;2023-06-24T10:08:31;32.00;1.00
5779;DHT22;2916;49.798;10.022;2023-06-24T10:10:59;32.50;1.00
5779;DHT22;2916;49.798;10.022;2023-06-24T10:13:27;33.10;1.00
5779;DHT22;2916;49.798;10.022;2023-06-24T10:15:56;32.60;1.00
5779;DHT22;2916;49.798;10.022;2023-06-24T10:18:35;31.90;1.00
5779;DHT22;2916;49.798;10.022;2023-06-24T10:21:04;32.70;1.00
5779;DHT22;2916;49.798;10.022;2023-06-24T10:23:35;31.70;1.00
5779;DHT22;2916;49.798;10.022;2023-06-24T10:26:08;31.10;1.00
5779;DHT22;2916;49.798;10.022;2023-06-24T10:32:02;30.40;1.00
5779;DHT22;2916;49.798;10.022;2023-06-24T10:34:33;31.20;1.00
5779;DHT22;2916;49.798;10.022;2023-06-24T10:37:09;31.00;1.00
5779;DHT22;2916;49.798;10.022;2023-06-24T10:39:56;30.20;1.00
5779;DHT22;2916;49.798;10.022;2023-06-24T10:42:26;30.40;1.00
5779;DHT22;2916;49.798;10.022;2023-06-24T10:45:01;30.90;1.00
5779;DHT22;2916;49.798;10.022;2023-06-24T10:47:40;30.70;1.00
5779;DHT22;2916;49.798;10.022;2023-06-24T10:50:11;31.20;1.00
5779;DHT22;2916;49.798;10.022;2023-06-24T10:52:41;31.60;1.00
5779;DHT22;2916;49.798;10.022;2023-06-24T10:55:10;32.10;1.00
5779;DHT22;2916;49.798;10.022;2023-06-24T10:57:39;31.80;1.00
5779;DHT22;2916;49.798;10.022;2023-06-24T11:00:10;32.40;1.00
5779;DHT22;2916;49.798;10.022;2023-06-24T11:02:39;32.00;1.00
5779;DHT22;2916;49.798;10.022;2023-06-24T11:05:08;30.80;1.00
5779;DHT22;2916;49.798;10.022;2023-06-24T11:07:36;31.00;1.00
5779;DHT22;2916;49.798;10.022;2023-06-24T11:10:06;31.20;1.00
5779;DHT22;2916;49.798;10.022;2023-06-24T11:12:39;31.80;1.00
5779;DHT22;2916;49.798;10.022;2023-06-24T11:15:10;32.30;1.00
5779;DHT22;2916;49.798;10.022;2023-06-24T11:17:39;31.60;1.00
5779;DHT22;2916;49.798;10.022;2023-06-24T11:20:07;30.60;1.00
5779;DHT22;2916;49.798;10.022;2023-06-24T11:22:36;31.50;1.00
5779;DHT22;2916;49.798;10.022;2023-06-24T11:25:04;31.80;1.00
5779;DHT22;2916;49.798;10.022;2023-06-24T11:27:32;31.70;1.00
5779;DHT22;2916;49.798;10.022;2023-06-24T11:30:00;31.60;1.00
5779;DHT22;2916;49.798;10.022;2023-06-24T11:32:36;31.00;1.00
5779;DHT22;2916;49.798;10.022;2023-06-24T11:35:06;31.40;1.00
5779;DHT22;2916;49.798;10.022;2023-06-24T11:37:35;31.40;1.00
5779;DHT22;2916;49.798;10.022;2023-06-24T11:40:03;31.70;1.00
5779;DHT22;2916;49.798;10.022;2023-06-24T11:42:32;32.20;1.00
5779;DHT22;2916;49.798;10.022;2023-06-24T11:45:03;32.20;1.00
5779;DHT22;2916;49.798;10.022;2023-06-24T11:47:32;31.60;1.00
5779;DHT22;2916;49.798;10.022;2023-06-24T11:50:03;31.50;1.00
5779;DHT22;2916;49.798;10.022;2023-06-24T11:52:41;30.90;1.00
5779;DHT22;2916;49.798;10.022;2023-06-24T11:55:12;30.60;1.00
5779;DHT22;2916;49.798;10.022;2023-06-24T11:57:56;30.80;1.00
5779;DHT22;2916;49.798;10.022;2023-06-24T12:00:26;29.80;1.00
5779;DHT22;2916;49.798;10.022;2023-06-24T12:02:56;29.50;1.00
5779;DHT22;2916;49.798;10.022;2023-06-24T12:05:27;29.50;1.00
5779;DHT22;2916;49.798;10.022;2023-06-24T12:07:59;29.20;1.00
5779;DHT22;2916;49.798;10.022;2023-06-24T12:10:29;30.10;1.00
5779;DHT22;2916;49.798;10.022;2023-06-24T12:12:59;31.00;1.00
5779;DHT22;2916;49.798;10.022;2023-06-24T12:15:27;30.10;1.00
5779;DHT22;2916;49.798;10.022;2023-06-24T12:17:55;29.80;1.00
5779;DHT22;2916;49.798;10.022;2023-06-24T12:20:26;28.80;1.00
5779;DHT22;2916;49.798;10.022;2023-06-24T12:22:53;29.80;1.00
5779;DHT22;2916;49.798;10.022;2023-06-24T12:25:20;29.90;1.00
5779;DHT22;2916;49.798;10.022;2023-06-24T12:27:48;29.70;1.00
5779;DHT22;2916;49.798;10.022;2023-06-24T12:30:15;29.80;1.00
5779;DHT22;2916;49.798;10.022;2023-06-24T12:32:43;30.00;1.00
5779;DHT22;2916;49.798;10.022;2023-06-24T12:35:10;29.80;1.00
5779;DHT22;2916;49.798;10.022;2023-06-24T12:37:39;29.80;1.00
5779;DHT22;2916;49.798;10.022;2023-06-24T12:40:07;29.60;1.00
5779;DHT22;2916;49.798;10.022;2023-06-24T12:42:35;30.40;1.00
5779;DHT22;2916;49.798;10.022;2023-06-24T12:45:02;29.70;1.00
5779;DHT22;2916;49.798;10.022;2023-06-24T12:47:30;30.30;1.00
5779;DHT22;2916;49.798;10.022;2023-06-24T12:49:58;30.90;1.00
5779;DHT22;2916;49.798;10.022;2023-06-24T12:52:25;31.10;1.00
5779;DHT22;2916;49.798;10.022;2023-06-24T12:54:53;31.20;1.00
5779;DHT22;2916;49.798;10.022;2023-06-24T12:57:20;31.20;1.00
5779;DHT22;2916;49.798;10.022;2023-06-24T12:59:47;31.30;1.00
5779;DHT22;2916;49.798;10.022;2023-06-24T13:02:15;31.50;1.00
5779;DHT22;2916;49.798;10.022;2023-06-24T13:04:42;31.60;1.00
5779;DHT22;2916;49.798;10.022;2023-06-24T13:07:09;31.10;1.00
5779;DHT22;2916;49.798;10.022;2023-06-24T13:09:36;30.50;1.00
5779;DHT22;2916;49.798;10.022;2023-06-24T13:12:05;30.90;1.00
5779;DHT22;2916;49.798;10.022;2023-06-24T13:14:33;30.70;1.00
5779;DHT22;2916;49.798;10.022;2023-06-24T13:17:00;30.40;1.00
5779;DHT22;2916;49.798;10.022;2023-06-24T13:19:27;30.80;1.00
5779;DHT22;2916;49.798;10.022;2023-06-24T13:21:55;30.70;1.00
5779;DHT22;2916;49.798;10.022;2023-06-24T13:24:22;30.70;1.00
5779;DHT22;2916;49.798;10.022;2023-06-24T13:26:49;30.30;1.00
5779;DHT22;2916;49.798;10.022;2023-06-24T13:29:18;29.70;1.00
5779;DHT22;2916;49.798;10.022;2023-06-24T13:31:46;29.60;1.00
5779;DHT22;2916;49.798;10.022;2023-06-24T13:34:13;30.10;1.00
5779;DHT22;2916;49.798;10.022;2023-06-24T13:36:40;30.20;1.00
5779;DHT22;2916;49.798;10.022;2023-06-24T13:39:08;30.30;1.00
5779;DHT22;2916;49.798;10.022;2023-06-24T13:41:38;30.40;1.00
5779;DHT22;2916;49.798;10.022;2023-06-24T13:44:05;30.30;1.00
5779;DHT22;2916;49.798;10.022;2023-06-24T13:46:34;30.10;1.00
5779;DHT22;2916;49.798;10.022;2023-06-24T13:49:01;30.10;1.00
5779;DHT22;2916;49.798;10.022;2023-06-24T13:51:29;30.60;1.00
5779;DHT22;2916;49.798;10.022;2023-06-24T13:53:56;30.80;1.00
5779;DHT22;2916;49.798;10.022;2023-06-24T13:56:24;30.70;1.00
5779;DHT22;2916;49.798;10.022;2023-06-24T13:58:53;30.90;1.00
5779;DHT22;2916;49.798;10.022;2023-06-24T14:01:22;30.40;1.00
5779;DHT22;2916;49.798;10.022;2023-06-24T14:03:51;31.00;1.00
5779;DHT22;2916;49.798;10.022;2023-06-24T14:06:19;30.90;1.00
5779;DHT22;2916;49.798;10.022;2023-06-24T14:08:49;31.00;1.00
5779;DHT22;2916;49.798;10.022;2023-06-24T14:11:17;30.40;1.00
5779;DHT22;2916;49.798;10.022;2023-06-24T14:13:44;30.40;1.00
5779;DHT22;2916;49.798;10.022;2023-06-24T14:16:12;29.70;1.00
5779;DHT22;2916;49.798;10.022;2023-06-24T14:18:40;29.50;1.00
5779;DHT22;2916;49.798;10.022;2023-06-24T14:21:09;30.00;1.00
5779;DHT22;2916;49.798;10.022;2023-06-24T14:23:39;29.70;1.00
5779;DHT22;2916;49.798;10.022;2023-06-24T14:26:07;29.00;1.00
5779;DHT22;2916;49.798;10.022;2023-06-24T14:28:34;28.90;1.00
5779;DHT22;2916;49.798;10.022;2023-06-24T14:31:02;29.20;1.00
5779;DHT22;2916;49.798;10.022;2023-06-24T14:33:29;29.10;1.00
5779;DHT22;2916;49.798;10.022;2023-06-24T14:35:56;29.00;1.00
5779;DHT22;2916;49.798;10.022;2023-06-24T14:38:25;29.00;1.00
5779;DHT22;2916;49.798;10.022;2023-06-24T14:40:52;29.00;1.00
5779;DHT22;2916;49.798;10.022;2023-06-24T14:43:21;29.30;1.00
5779;DHT22;2916;49.798;10.022;2023-06-24T14:45:48;29.40;1.00
5779;DHT22;2916;49.798;10.022;2023-06-24T14:48:15;29.40;1.00
5779;DHT22;2916;49.798;10.022;2023-06-24T14:50:43;29.70;1.00
5779;DHT22;2916;49.798;10.022;2023-06-24T14:53:10;29.80;1.00
5779;DHT22;2916;49.798;10.022;2023-06-24T14:55:38;29.70;1.00
5779;DHT22;2916;49.798;10.022;2023-06-24T14:58:05;30.30;1.00
5779;DHT22;2916;49.798;10.022;2023-06-24T15:00:33;30.30;1.00
5779;DHT22;2916;49.798;10.022;2023-06-24T15:03:00;30.40;1.00
5779;DHT22;2916;49.798;10.022;2023-06-24T15:05:27;30.50;1.00
5779;DHT22;2916;49.798;10.022;2023-06-24T15:07:54;30.30;1.00
5779;DHT22;2916;49.798;10.022;2023-06-24T15:10:21;30.40;1.00
5779;DHT22;2916;49.798;10.022;2023-06-24T15:12:50;30.50;1.00
5779;DHT22;2916;49.798;10.022;2023-06-24T15:15:17;29.90;1.00
5779;DHT22;2916;49.798;10.022;2023-06-24T15:17:44;30.00;1.00
5779;DHT22;2916;49.798;10.022;2023-06-24T15:20:14;30.00;1.00
5779;DHT22;2916;49.798;10.022;2023-06-24T15:22:41;29.90;1.00
5779;DHT22;2916;49.798;10.022;2023-06-24T15:25:08;30.20;1.00
5779;DHT22;2916;49.798;10.022;2023-06-24T15:27:36;30.60;1.00
5779;DHT22;2916;49.798;10.022;2023-06-24T15:30:06;30.10;1.00
5779;DHT22;2916;49.798;10.022;2023-06-24T15:32:34;30.10;1.00
5779;DHT22;2916;49.798;10.022;2023-06-24T15:35:02;29.60;1.00
5779;DHT22;2916;49.798;10.022;2023-06-24T15:37:29;30.00;1.00
5779;DHT22;2916;49.798;10.022;2023-06-24T15:39:56;29.50;1.00
5779;DHT22;2916;49.798;10.022;2023-06-24T15:42:24;29.20;1.00
5779;DHT22;2916;49.798;10.022;2023-06-24T15:44:51;29.60;1.00
5779;DHT22;2916;49.798;10.022;2023-06-24T15:47:20;29.60;1.00
5779;DHT22;2916;49.798;10.022;2023-06-24T15:49:47;29.60;1.00
5779;DHT22;2916;49.798;10.022;2023-06-24T15:52:15;29.70;1.00
5779;DHT22;2916;49.798;10.022;2023-06-24T15:54:42;29.70;1.00
5779;DHT22;2916;49.798;10.022;2023-06-24T15:57:09;29.30;1.00
5779;DHT22;2916;49.798;10.022;2023-06-24T15:59:36;29.20;1.00
5779;DHT22;2916;49.798;10.022;2023-06-24T16:02:04;28.80;1.00
5779;DHT22;2916;49.798;10.022;2023-06-24T16:04:33;28.90;1.00
5779;DHT22;2916;49.798;10.022;2023-06-24T16:07:01;29.00;1.00
5779;DHT22;2916;49.798;10.022;2023-06-24T16:09:28;29.20;1.00
5779;DHT22;2916;49.798;10.022;2023-06-24T16:11:55;29.30;1.00
5779;DHT22;2916;49.798;10.022;2023-06-24T16:14:22;28.70;1.00
5779;DHT22;2916;49.798;10.022;2023-06-24T16:16:50;28.60;1.00
5779;DHT22;2916;49.798;10.022;2023-06-24T16:19:19;28.70;1.00